首页
METAR-TAF:

METAR-TAF

机场 :

Floyd Bennett Memorial Airport

Glens Falls, 紐約州, 美国

纬度: 43-20-28N, 经度: 073-36-38W, 海拔: 100米

当前天气观测

该预报发布于1小时和3分钟前的06:53 UTC
风速3节,风向
温度 18°C
湿度 94%
气压 1009 hPa
能見度: 16.1公里
散云层高于4600英尺
阴天层高于5500英尺

METAR: KGFL 230653Z AUTO 36003KT 10SM SCT046 OVC055 18/17 A2981 RMK AO2 RAB27E48 SLP095 P0000 T01830167

时间: 03:56 (07:56 UTC)

预报

该预报发布于2小时和31分钟前的05:25 UTC
预报有效从23日的 06点(UTC)到 24日的 06点(UTC)
风速5节,风向
能見度: 10公里
散云层高于1500英尺
阴天层高于5000英尺
从 23日的 0800点(UTC)
风速4节,风向
能見度: 8.0公里
多云层高于1500英尺
阴天层高于3500英尺
小雨, 轻雾
从 23日的 1100点(UTC)
风速4节,风向北转东北
能見度: 10公里
多云层高于2500英尺
阴天层高于3500英尺
从 23日的 1500点(UTC)
风速5节,风向北转东北
能見度: 10公里
多云层高于3500英尺
多云层高于5000英尺
从 23日的 1800点(UTC)
风速5节,风向东北
能見度: 10公里
多云层高于5000英尺
多云层高于10000英尺
从 24日的 0100点(UTC)
风速节,风向
能見度: 10公里
散云层高于5000英尺
多云层高于25000英尺

TAF: KGFL 230525Z 2306/2406 01005KT P6SM SCT015 OVC050 FM230800 01004KT 5SM -RA BR BKN015 OVC035 FM231100 02004KT P6SM BKN025 OVC035 FM231500 02005KT P6SM BKN035 BKN050 FM231800 04005KT P6SM BKN050 BKN100 FM240100 00000KT P6SM SCT050 BKN250

超过4000个机场的气象观测和天气预报(METAR&TAF报告)。

可查询的气象台以黄色和红色小点在地图上表示。

将鼠标移到小点上方,可查看气象台名称。

然后点击查看天气观测和预报。

如需切换地图:点击带黑十字的绿色按钮放大地图;点击带横线的绿色按钮缩小地图;或者点击绿色箭头查看邻近地区的地图。


METAR-TAF: